createdAt,value
2018-08-28T00:00:19.969Z,2.77
2018-08-28T00:02:47.116Z,2.50
2018-08-28T00:05:14.244Z,2.27
2018-08-28T00:07:41.401Z,2.80
2018-08-28T00:10:08.560Z,2.43
2018-08-28T00:12:35.713Z,1.97
2018-08-28T00:15:02.897Z,2.97
2018-08-28T00:17:30.033Z,2.60
2018-08-28T00:19:57.169Z,2.63
2018-08-28T00:22:24.309Z,2.50
2018-08-28T00:24:51.459Z,2.70
2018-08-28T00:27:18.633Z,2.13
2018-08-28T00:29:45.784Z,2.53
2018-08-28T00:32:12.935Z,2.30
2018-08-28T00:34:40.114Z,2.40
2018-08-28T00:37:07.285Z,2.57
2018-08-28T00:39:34.422Z,2.40
2018-08-28T00:42:01.687Z,2.20
2018-08-28T00:44:28.843Z,2.30
2018-08-28T00:46:55.975Z,2.10
2018-08-28T00:49:23.149Z,2.40
2018-08-28T00:51:50.277Z,3.17
2018-08-28T00:54:17.452Z,2.40
2018-08-28T00:56:44.607Z,2.40
2018-08-28T00:59:11.755Z,2.47
2018-08-28T01:01:38.921Z,2.47
2018-08-28T01:04:06.233Z,2.30
2018-08-28T01:06:33.408Z,2.67
2018-08-28T01:09:00.548Z,2.23
2018-08-28T01:11:27.687Z,2.20
2018-08-28T01:13:54.836Z,2.20
2018-08-28T01:16:21.961Z,2.40
2018-08-28T01:18:49.112Z,2.70
2018-08-28T01:21:16.251Z,2.83
2018-08-28T01:23:43.544Z,2.70
2018-08-28T01:26:10.726Z,2.77
2018-08-28T01:28:37.858Z,2.70
2018-08-28T01:31:05.148Z,2.77
2018-08-28T01:33:32.265Z,2.87
2018-08-28T01:35:59.404Z,3.20
2018-08-28T01:38:26.649Z,3.33
2018-08-28T01:40:53.756Z,3.10
2018-08-28T01:43:22.218Z,3.40
2018-08-28T01:45:49.396Z,3.27
2018-08-28T01:48:16.542Z,3.43
2018-08-28T01:50:43.724Z,3.53
2018-08-28T01:53:10.876Z,3.77
2018-08-28T01:55:37.985Z,4.17
2018-08-28T01:58:05.132Z,3.20
2018-08-28T02:00:32.257Z,3.63
2018-08-28T02:02:59.405Z,4.13
2018-08-28T02:05:26.535Z,4.87
2018-08-28T02:07:53.673Z,3.97
2018-08-28T02:10:20.835Z,4.67
2018-08-28T02:12:47.975Z,3.77
2018-08-28T02:15:15.129Z,4.40
2018-08-28T02:17:42.269Z,4.17
2018-08-28T02:20:09.439Z,4.40
2018-08-28T02:22:36.548Z,4.70
2018-08-28T02:25:04.705Z,4.70
2018-08-28T02:27:31.816Z,4.23
2018-08-28T02:29:58.969Z,4.47
2018-08-28T02:32:26.109Z,4.33
2018-08-28T02:34:53.280Z,4.70
2018-08-28T02:37:20.421Z,4.57
2018-08-28T02:39:47.536Z,4.97
2018-08-28T02:42:14.654Z,4.50
2018-08-28T02:44:41.838Z,5.30
2018-08-28T02:47:09.006Z,4.97
2018-08-28T02:49:36.351Z,5.93
2018-08-28T02:52:03.488Z,5.60
2018-08-28T02:54:30.640Z,5.70
2018-08-28T02:56:57.789Z,6.03
2018-08-28T02:59:24.965Z,5.60
2018-08-28T03:01:52.084Z,5.70
2018-08-28T03:04:19.240Z,5.67
2018-08-28T03:06:46.358Z,5.90
2018-08-28T03:09:13.763Z,6.43
2018-08-28T03:11:40.992Z,6.10
2018-08-28T03:16:31.325Z,5.63
2018-08-28T03:18:58.469Z,6.13
2018-08-28T03:21:25.642Z,6.13
2018-08-28T03:23:52.817Z,6.50
2018-08-28T03:26:19.958Z,7.00
2018-08-28T03:28:47.113Z,7.40
2018-08-28T03:31:14.230Z,6.20
2018-08-28T03:33:41.375Z,6.70
2018-08-28T03:36:08.520Z,6.97
2018-08-28T03:38:35.649Z,7.10
2018-08-28T03:41:02.817Z,7.17
2018-08-28T03:43:29.940Z,6.77
2018-08-28T03:45:57.120Z,7.27
2018-08-28T03:48:24.586Z,6.87
2018-08-28T03:50:51.700Z,7.13
2018-08-28T03:53:19.219Z,7.43
2018-08-28T03:55:46.367Z,7.87
2018-08-28T03:58:13.473Z,9.03
2018-08-28T04:00:40.611Z,7.20
2018-08-28T04:03:07.760Z,8.67
2018-08-28T04:05:34.922Z,8.20
2018-08-28T04:08:02.489Z,8.70
2018-08-28T04:10:29.641Z,9.00
2018-08-28T04:12:56.902Z,8.30
2018-08-28T04:15:24.068Z,7.90
2018-08-28T04:17:51.220Z,7.47
2018-08-28T04:20:19.584Z,8.63
2018-08-28T04:22:46.824Z,8.50
2018-08-28T04:25:14.296Z,9.43
2018-08-28T04:27:41.461Z,10.07
2018-08-28T04:30:08.792Z,9.77
2018-08-28T04:32:35.963Z,10.07
2018-08-28T04:35:03.309Z,9.30
2018-08-28T04:37:30.476Z,8.07
2018-08-28T04:39:57.901Z,8.57
2018-08-28T04:42:25.048Z,7.87
2018-08-28T04:44:52.168Z,7.63
2018-08-28T04:47:19.324Z,7.90
2018-08-28T04:49:46.437Z,7.67
2018-08-28T04:52:13.583Z,7.60
2018-08-28T04:54:40.915Z,7.53
2018-08-28T04:57:08.079Z,7.50
2018-08-28T04:59:35.253Z,8.17
2018-08-28T05:02:02.537Z,7.37
2018-08-28T05:04:29.680Z,7.73
2018-08-28T05:06:56.843Z,7.53
2018-08-28T05:09:23.988Z,7.30
2018-08-28T05:11:51.173Z,7.37
2018-08-28T05:14:18.272Z,7.50
2018-08-28T05:16:45.441Z,7.60
2018-08-28T05:19:12.605Z,7.30
2018-08-28T05:21:39.802Z,8.47
2018-08-28T05:24:06.977Z,9.30
2018-08-28T05:26:34.122Z,7.63
2018-08-28T05:29:01.292Z,8.73
2018-08-28T05:31:28.429Z,9.13
2018-08-28T05:33:55.548Z,8.93
2018-08-28T05:36:22.716Z,8.37
2018-08-28T05:38:49.832Z,8.10
2018-08-28T05:41:16.995Z,7.43
2018-08-28T05:43:44.177Z,7.60
2018-08-28T05:46:11.352Z,7.67
2018-08-28T05:48:38.485Z,8.87
2018-08-28T05:51:05.657Z,9.95
2018-08-28T05:53:32.808Z,10.37
2018-08-28T05:56:00.014Z,10.97
2018-08-28T05:58:27.108Z,10.73
2018-08-28T06:00:54.244Z,11.67
2018-08-28T06:03:21.422Z,12.30
2018-08-28T06:05:48.581Z,11.13
2018-08-28T06:08:15.790Z,12.07
2018-08-28T06:10:43.000Z,11.97
2018-08-28T06:13:10.419Z,11.50
2018-08-28T06:15:37.793Z,13.07
2018-08-28T06:18:04.992Z,12.30
2018-08-28T06:20:32.177Z,11.47
2018-08-28T06:22:59.341Z,12.10
2018-08-28T06:25:26.513Z,11.48
2018-08-28T06:27:53.657Z,10.58
2018-08-28T06:30:20.800Z,11.95
2018-08-28T06:32:47.958Z,11.63
2018-08-28T06:35:15.129Z,12.15
2018-08-28T06:37:42.272Z,11.70
2018-08-28T06:40:09.416Z,11.18
2018-08-28T06:42:36.560Z,12.63
2018-08-28T06:45:03.724Z,12.70
2018-08-28T06:47:30.900Z,12.78
2018-08-28T06:49:58.052Z,14.07
2018-08-28T06:52:25.227Z,12.18
2018-08-28T06:54:52.417Z,12.65
2018-08-28T06:57:19.541Z,13.10
2018-08-28T06:59:46.752Z,12.40
2018-08-28T07:02:13.937Z,12.25
2018-08-28T07:04:41.436Z,12.37
2018-08-28T07:07:08.608Z,12.37
2018-08-28T07:09:35.736Z,12.55
2018-08-28T07:12:02.896Z,12.30
2018-08-28T07:14:30.007Z,10.85
2018-08-28T07:16:57.185Z,10.53
2018-08-28T07:19:24.367Z,9.78
2018-08-28T07:21:51.638Z,8.80
2018-08-28T07:24:18.776Z,9.70
2018-08-28T07:26:45.932Z,8.75
2018-08-28T07:29:13.106Z,7.62
2018-08-28T07:31:40.253Z,8.73
2018-08-28T07:34:07.381Z,7.87
2018-08-28T07:36:34.514Z,7.65
2018-08-28T07:39:01.705Z,6.22
2018-08-28T07:41:29.148Z,5.78
2018-08-28T07:43:56.314Z,5.72
2018-08-28T07:46:23.468Z,6.62
2018-08-28T07:48:50.583Z,5.87
2018-08-28T07:51:17.753Z,5.80
2018-08-28T07:53:44.937Z,5.55
2018-08-28T07:56:12.069Z,5.35
2018-08-28T07:58:39.232Z,5.47
2018-08-28T08:01:06.364Z,5.67
2018-08-28T08:03:33.498Z,4.65
2018-08-28T08:06:00.633Z,5.72
2018-08-28T08:08:27.788Z,5.20
2018-08-28T08:10:54.965Z,5.10
2018-08-28T08:13:22.125Z,5.37
2018-08-28T08:15:49.281Z,4.83
2018-08-28T08:18:16.402Z,5.60
2018-08-28T08:20:43.525Z,4.80
2018-08-28T08:23:10.820Z,5.55
2018-08-28T08:25:37.977Z,4.58
2018-08-28T08:28:05.323Z,4.85
2018-08-28T08:30:32.339Z,4.45
2018-08-28T08:32:59.842Z,4.62
2018-08-28T08:35:27.095Z,3.87
2018-08-28T08:37:54.144Z,5.15
2018-08-28T08:40:21.308Z,4.70
2018-08-28T08:42:48.496Z,4.67
2018-08-28T08:45:15.648Z,4.50
2018-08-28T08:47:42.812Z,4.62
2018-08-28T08:50:10.357Z,4.65
2018-08-28T08:52:37.895Z,4.58
2018-08-28T08:55:05.211Z,5.12
2018-08-28T08:57:32.560Z,5.37
2018-08-28T08:59:59.505Z,5.15
2018-08-28T09:02:26.677Z,4.55
2018-08-28T09:04:53.837Z,4.25
2018-08-28T09:07:21.000Z,4.83
2018-08-28T09:09:48.136Z,4.05
2018-08-28T09:12:15.300Z,4.80
2018-08-28T09:14:42.427Z,4.85
2018-08-28T09:17:09.553Z,4.47
2018-08-28T09:19:36.733Z,4.58
2018-08-28T09:22:03.921Z,4.53
2018-08-28T09:24:31.079Z,4.62
2018-08-28T09:26:58.245Z,4.10
2018-08-28T09:29:25.361Z,3.95
2018-08-28T09:31:52.479Z,4.53
2018-08-28T09:34:19.602Z,4.87
2018-08-28T09:36:46.757Z,4.40
2018-08-28T09:39:13.883Z,4.47
2018-08-28T09:41:41.066Z,4.55
2018-08-28T09:44:08.217Z,4.80
2018-08-28T09:46:35.379Z,4.62
2018-08-28T09:49:02.556Z,4.30
2018-08-28T09:51:29.704Z,4.37
2018-08-28T09:53:56.865Z,4.30
2018-08-28T09:56:24.088Z,4.33
2018-08-28T09:58:51.204Z,4.15
2018-08-28T10:01:24.168Z,4.20
2018-08-28T10:03:51.332Z,4.40
2018-08-28T10:06:18.485Z,4.15
2018-08-28T10:08:45.645Z,4.12
2018-08-28T10:11:12.792Z,4.50
2018-08-28T10:13:39.909Z,4.58
2018-08-28T10:16:07.057Z,4.33
2018-08-28T10:18:34.461Z,4.42
2018-08-28T10:21:01.632Z,4.45
2018-08-28T10:23:28.776Z,4.03
2018-08-28T10:25:55.900Z,4.58
2018-08-28T10:28:23.085Z,4.37
2018-08-28T10:30:50.289Z,4.12
2018-08-28T10:33:17.437Z,4.30
2018-08-28T10:35:44.560Z,4.67
2018-08-28T10:38:11.790Z,4.65
2018-08-28T10:40:38.847Z,3.70
2018-08-28T10:43:05.980Z,4.55
2018-08-28T10:45:33.182Z,4.05
2018-08-28T10:48:00.301Z,4.25
2018-08-28T10:50:27.430Z,4.45
2018-08-28T10:52:54.631Z,4.53
2018-08-28T10:55:21.766Z,4.83
2018-08-28T10:57:48.912Z,3.80
2018-08-28T11:00:16.045Z,4.47
2018-08-28T11:02:43.197Z,3.65
2018-08-28T11:05:12.366Z,4.35
2018-08-28T11:07:39.525Z,4.30
2018-08-28T11:10:07.235Z,5.00
2018-08-28T11:12:34.349Z,4.62
2018-08-28T11:15:01.532Z,3.90
2018-08-28T11:17:28.720Z,4.17
2018-08-28T11:19:56.485Z,4.67
2018-08-28T11:22:23.956Z,4.10
2018-08-28T11:24:51.113Z,4.45
2018-08-28T11:27:18.224Z,4.53
2018-08-28T11:29:45.348Z,4.30
2018-08-28T11:32:12.497Z,3.83
2018-08-28T11:34:39.626Z,4.55
2018-08-28T11:37:06.776Z,3.90
2018-08-28T11:39:33.949Z,4.20
2018-08-28T11:42:01.125Z,4.72
2018-08-28T11:44:28.290Z,4.00
2018-08-28T11:46:55.447Z,4.40
2018-08-28T11:49:22.584Z,4.40
2018-08-28T11:51:49.704Z,3.98
2018-08-28T11:54:16.913Z,4.35
2018-08-28T11:56:44.001Z,4.33
2018-08-28T11:59:11.160Z,4.17
2018-08-28T12:01:38.285Z,4.87
2018-08-28T12:04:05.682Z,3.80
2018-08-28T12:06:32.889Z,4.00
2018-08-28T12:08:59.981Z,4.65
2018-08-28T12:11:27.144Z,3.92
2018-08-28T12:13:54.295Z,4.45
2018-08-28T12:16:21.461Z,5.12
2018-08-28T12:18:48.622Z,4.08
2018-08-28T12:21:15.965Z,4.85
2018-08-28T12:23:43.114Z,3.77
2018-08-28T12:26:10.250Z,4.50
2018-08-28T12:28:37.413Z,4.37
2018-08-28T12:31:04.577Z,4.33
2018-08-28T12:33:31.724Z,4.10
2018-08-28T12:35:58.880Z,4.50
2018-08-28T12:38:26.020Z,4.12
2018-08-28T12:40:53.174Z,4.40
2018-08-28T12:43:20.297Z,4.55
2018-08-28T12:45:47.436Z,3.98
2018-08-28T12:48:14.592Z,4.15
2018-08-28T12:50:41.781Z,4.58
2018-08-28T12:53:08.936Z,4.75
2018-08-28T12:55:36.077Z,4.70
2018-08-28T12:58:03.255Z,3.80
2018-08-28T13:00:30.410Z,4.50
2018-08-28T13:02:57.497Z,4.25
2018-08-28T13:05:24.660Z,4.78
2018-08-28T13:07:51.824Z,4.50
2018-08-28T13:10:18.989Z,4.62
2018-08-28T13:12:46.140Z,4.30
2018-08-28T13:15:13.345Z,4.60
2018-08-28T13:17:40.486Z,4.17
2018-08-28T13:20:07.752Z,4.35
2018-08-28T13:22:34.925Z,5.00
2018-08-28T13:25:02.072Z,4.37
2018-08-28T13:27:29.255Z,4.50
2018-08-28T13:29:56.376Z,4.35
2018-08-28T13:32:23.540Z,4.58
2018-08-28T13:34:50.696Z,4.33
2018-08-28T13:37:17.869Z,4.17
2018-08-28T13:39:45.038Z,4.20
2018-08-28T13:42:12.238Z,4.12
2018-08-28T13:44:39.364Z,4.12
2018-08-28T13:47:06.573Z,4.80
2018-08-28T13:49:33.681Z,4.42
2018-08-28T13:52:00.874Z,4.65
2018-08-28T13:54:28.489Z,4.83
2018-08-28T13:56:55.436Z,4.40
2018-08-28T13:59:22.584Z,4.15
2018-08-28T14:01:49.728Z,4.75
2018-08-28T14:04:16.926Z,5.00
2018-08-28T14:06:44.086Z,4.35
2018-08-28T14:09:11.255Z,4.12
2018-08-28T14:11:38.440Z,4.58
2018-08-28T14:14:05.716Z,4.35
2018-08-28T14:16:32.779Z,4.85
2018-08-28T14:18:59.881Z,4.70
2018-08-28T14:21:27.053Z,4.40
2018-08-28T14:23:54.172Z,4.60
2018-08-28T14:26:21.369Z,4.62
2018-08-28T14:28:48.577Z,4.10
2018-08-28T14:31:15.794Z,4.35
2018-08-28T14:33:42.970Z,4.95
2018-08-28T14:36:10.149Z,4.30
2018-08-28T14:38:37.321Z,4.65
2018-08-28T14:41:04.716Z,4.65
2018-08-28T14:43:31.848Z,4.90
2018-08-28T14:45:59.012Z,5.05
2018-08-28T14:48:26.177Z,4.75
2018-08-28T14:50:53.345Z,4.58
2018-08-28T14:53:20.504Z,5.25
2018-08-28T14:55:47.660Z,4.70
2018-08-28T14:58:14.828Z,4.97
2018-08-28T15:00:41.972Z,4.87
2018-08-28T15:03:09.129Z,5.17
2018-08-28T15:05:36.287Z,4.55
2018-08-28T15:08:03.600Z,4.58
2018-08-28T15:10:30.744Z,4.65
2018-08-28T15:12:57.923Z,5.35
2018-08-28T15:15:25.109Z,4.25
2018-08-28T15:17:52.309Z,4.20
2018-08-28T15:20:19.436Z,4.53
2018-08-28T15:22:46.572Z,4.90
2018-08-28T15:25:13.696Z,4.75
2018-08-28T15:27:40.923Z,5.20
2018-08-28T15:30:08.149Z,4.85
2018-08-28T15:32:35.362Z,4.40
2018-08-28T15:35:02.501Z,4.72
2018-08-28T15:37:29.652Z,4.45
2018-08-28T15:39:56.824Z,4.65
2018-08-28T15:42:23.963Z,4.65
2018-08-28T15:44:51.120Z,4.83
2018-08-28T15:47:18.281Z,4.72
2018-08-28T15:49:45.441Z,4.78
2018-08-28T15:52:12.573Z,4.60
2018-08-28T15:54:39.696Z,4.70
2018-08-28T15:57:06.864Z,4.83
2018-08-28T15:59:34.009Z,4.25
2018-08-28T16:02:01.200Z,5.25
2018-08-28T16:04:28.384Z,4.50
2018-08-28T16:06:55.489Z,4.67
2018-08-28T16:09:22.656Z,4.42
2018-08-28T16:11:49.781Z,4.80
2018-08-28T16:14:16.934Z,4.62
2018-08-28T16:16:45.129Z,4.55
2018-08-28T16:19:12.280Z,4.78
2018-08-28T16:21:45.809Z,4.30
2018-08-28T16:24:12.994Z,4.50
2018-08-28T16:26:40.181Z,4.60
2018-08-28T16:29:07.541Z,4.42
2018-08-28T16:31:34.894Z,4.92
2018-08-28T16:34:02.265Z,5.80
2018-08-28T16:36:30.010Z,4.80
2018-08-28T16:38:57.160Z,4.08
2018-08-28T16:41:24.308Z,4.37
2018-08-28T16:43:51.432Z,5.28
2018-08-28T16:46:18.571Z,3.92
2018-08-28T16:48:45.713Z,4.35
2018-08-28T16:51:12.873Z,4.17
2018-08-28T16:53:40.023Z,4.78
2018-08-28T16:56:07.184Z,4.85
2018-08-28T16:58:34.347Z,4.37
2018-08-28T17:01:01.514Z,3.72
2018-08-28T17:03:28.666Z,3.98
2018-08-28T17:05:55.862Z,6.12
2018-08-28T17:08:23.005Z,4.62
2018-08-28T17:10:50.152Z,3.87
2018-08-28T17:13:17.304Z,4.67
2018-08-28T17:15:44.460Z,3.95
2018-08-28T17:18:11.607Z,4.40
2018-08-28T17:20:38.752Z,4.65
2018-08-28T17:23:05.900Z,4.75
2018-08-28T17:25:33.059Z,4.92
2018-08-28T17:28:00.221Z,4.65
2018-08-28T17:30:27.371Z,4.75
2018-08-28T17:32:54.498Z,4.87
2018-08-28T17:35:21.684Z,4.50
2018-08-28T17:37:48.932Z,4.22
2018-08-28T17:40:16.119Z,4.15
2018-08-28T17:42:43.331Z,4.37
2018-08-28T17:45:10.424Z,4.17
2018-08-28T17:47:37.541Z,4.08
2018-08-28T17:50:05.219Z,4.45
2018-08-28T17:52:32.344Z,4.28
2018-08-28T17:54:59.507Z,4.45
2018-08-28T17:57:26.656Z,4.72
2018-08-28T17:59:53.808Z,4.25
2018-08-28T18:02:21.001Z,4.33
2018-08-28T18:04:48.165Z,3.95
2018-08-28T18:07:15.316Z,3.87
2018-08-28T18:09:42.428Z,4.10
2018-08-28T18:12:09.557Z,4.15
2018-08-28T18:14:36.700Z,4.28
2018-08-28T18:17:04.230Z,4.28
2018-08-28T18:19:31.367Z,4.20
2018-08-28T18:21:58.481Z,4.20
2018-08-28T18:24:25.614Z,5.28
2018-08-28T18:26:52.802Z,5.00
2018-08-28T18:29:19.976Z,4.30
2018-08-28T18:31:47.133Z,4.25
2018-08-28T18:34:14.294Z,4.58
2018-08-28T18:36:41.443Z,4.08
2018-08-28T18:39:09.048Z,4.78
2018-08-28T18:41:36.576Z,4.22
2018-08-28T18:44:03.445Z,4.15
2018-08-28T18:46:30.640Z,4.50
2018-08-28T18:48:57.772Z,4.72
2018-08-28T18:51:24.971Z,4.53
2018-08-28T18:53:52.144Z,5.62
2018-08-28T18:56:19.325Z,4.62
2018-08-28T18:58:46.460Z,4.60
2018-08-28T19:01:13.619Z,4.60
2018-08-28T19:03:40.770Z,5.17
2018-08-28T19:06:07.889Z,4.20
2018-08-28T19:08:35.052Z,4.95
2018-08-28T19:11:02.229Z,6.08
2018-08-28T19:13:29.413Z,6.23
2018-08-28T19:15:56.592Z,10.00
2018-08-28T19:18:23.960Z,9.93
2018-08-28T19:20:51.137Z,9.53
2018-08-28T19:23:18.253Z,8.47
2018-08-28T19:25:45.433Z,7.90
2018-08-28T19:28:12.592Z,7.23
2018-08-28T19:30:39.728Z,9.10
2018-08-28T19:33:06.893Z,5.93
2018-08-28T19:35:34.029Z,6.17
2018-08-28T19:38:01.237Z,5.60
2018-08-28T19:40:28.411Z,5.00
2018-08-28T19:42:55.785Z,5.17
2018-08-28T19:45:22.944Z,5.23
2018-08-28T19:47:50.075Z,5.30
2018-08-28T19:50:17.220Z,5.63
2018-08-28T19:52:44.384Z,5.67
2018-08-28T19:55:11.557Z,4.80
2018-08-28T19:57:38.727Z,5.93
2018-08-28T20:00:06.448Z,5.43
2018-08-28T20:02:33.628Z,5.30
2018-08-28T20:05:00.822Z,5.80
2018-08-28T20:07:28.203Z,5.70
2018-08-28T20:09:55.355Z,6.70
2018-08-28T20:12:23.029Z,6.27
2018-08-28T20:14:50.136Z,5.30
2018-08-28T20:17:17.294Z,6.30
2018-08-28T20:19:44.423Z,32.83
2018-08-28T20:22:12.133Z,5.93
2018-08-28T20:24:39.511Z,5.53
2018-08-28T20:27:07.050Z,5.17
2018-08-28T20:29:34.227Z,5.27
2018-08-28T20:32:01.422Z,5.53
2018-08-28T20:34:28.577Z,5.90
2018-08-28T20:36:55.744Z,4.60
2018-08-28T20:39:22.889Z,4.97
2018-08-28T20:41:50.074Z,5.67
2018-08-28T20:44:17.227Z,5.70
2018-08-28T20:46:44.367Z,5.20
2018-08-28T20:49:11.518Z,5.47
2018-08-28T20:51:38.700Z,5.60
2018-08-28T20:54:05.964Z,5.57
2018-08-28T20:56:33.104Z,5.53
2018-08-28T20:59:00.231Z,5.27
2018-08-28T21:01:27.360Z,5.33
2018-08-28T21:03:54.493Z,5.40
2018-08-28T21:06:21.643Z,5.13
2018-08-28T21:08:48.807Z,5.70
2018-08-28T21:11:16.367Z,5.60
2018-08-28T21:13:43.527Z,5.10
2018-08-28T21:16:10.711Z,5.43
2018-08-28T21:18:37.857Z,5.20
2018-08-28T21:21:04.999Z,6.17
2018-08-28T21:23:32.118Z,5.30
2018-08-28T21:25:59.280Z,6.40
2018-08-28T21:28:26.415Z,5.53
2018-08-28T21:30:53.536Z,5.73
2018-08-28T21:33:20.721Z,5.73
2018-08-28T21:35:47.954Z,5.93
2018-08-28T21:38:15.032Z,5.87
2018-08-28T21:40:42.175Z,5.57
2018-08-28T21:43:09.332Z,6.33
2018-08-28T21:45:36.479Z,6.37
2018-08-28T21:48:03.677Z,6.00
2018-08-28T21:50:30.812Z,6.50
2018-08-28T21:52:57.941Z,6.53
2018-08-28T21:55:25.117Z,5.80
2018-08-28T21:57:52.406Z,5.60
2018-08-28T22:00:19.565Z,5.83
2018-08-28T22:02:46.793Z,6.40
2018-08-28T22:05:13.972Z,5.80
2018-08-28T22:07:42.023Z,5.67
2018-08-28T22:10:09.500Z,5.97
2018-08-28T22:12:36.693Z,6.10
2018-08-28T22:15:04.411Z,6.30
2018-08-28T22:17:31.576Z,6.37
2018-08-28T22:19:58.786Z,6.00
2018-08-28T22:22:25.916Z,6.10
2018-08-28T22:24:53.079Z,6.77
2018-08-28T22:27:20.251Z,6.10
2018-08-28T22:29:47.369Z,6.33
2018-08-28T22:32:14.500Z,6.90
2018-08-28T22:34:41.644Z,6.83
2018-08-28T22:37:08.780Z,5.90
2018-08-28T22:39:35.908Z,6.00
2018-08-28T22:42:03.071Z,6.57
2018-08-28T22:44:30.317Z,6.17
2018-08-28T22:46:57.418Z,5.83
2018-08-28T22:49:24.581Z,6.30
2018-08-28T22:51:51.754Z,6.00
2018-08-28T22:54:19.032Z,6.70
2018-08-28T22:56:46.068Z,5.77
2018-08-28T22:59:13.217Z,6.77
2018-08-28T23:01:40.340Z,6.50
2018-08-28T23:04:07.448Z,6.13
2018-08-28T23:06:34.588Z,6.70
2018-08-28T23:09:01.730Z,6.43
2018-08-28T23:11:28.870Z,6.87
2018-08-28T23:13:56.031Z,5.93
2018-08-28T23:16:23.176Z,6.50
2018-08-28T23:18:50.284Z,7.43
2018-08-28T23:21:17.417Z,6.87
2018-08-28T23:23:44.551Z,6.57
2018-08-28T23:26:11.697Z,6.43
2018-08-28T23:28:38.827Z,6.90
2018-08-28T23:31:05.935Z,6.23
2018-08-28T23:33:33.068Z,6.47
2018-08-28T23:36:00.172Z,6.47
2018-08-28T23:38:27.329Z,6.87
2018-08-28T23:40:54.442Z,7.00
2018-08-28T23:43:21.572Z,5.97
2018-08-28T23:45:48.751Z,7.13
2018-08-28T23:48:16.116Z,6.37
2018-08-28T23:50:43.247Z,6.53
2018-08-28T23:53:10.345Z,6.77
2018-08-28T23:55:37.488Z,7.00
2018-08-28T23:58:04.679Z,7.10
